sensor_id;sensor_type;location;lat;lon;timestamp;P1;durP1;ratioP1;P2;durP2;ratioP2
23230;SDS011;11784;49.818;8.632;2022-12-11T00:00:05;6.90;;;3.45;;
23230;SDS011;11784;49.818;8.632;2022-12-11T00:02:32;9.52;;;4.47;;
23230;SDS011;11784;49.818;8.632;2022-12-11T00:04:57;8.98;;;4.97;;
23230;SDS011;11784;49.818;8.632;2022-12-11T00:07:23;7.22;;;3.60;;
23230;SDS011;11784;49.818;8.632;2022-12-11T00:09:48;6.97;;;4.72;;
23230;SDS011;11784;49.818;8.632;2022-12-11T00:12:14;6.57;;;3.65;;
23230;SDS011;11784;49.818;8.632;2022-12-11T00:14:39;6.72;;;4.05;;
23230;SDS011;11784;49.818;8.632;2022-12-11T00:17:05;10.48;;;4.30;;
23230;SDS011;11784;49.818;8.632;2022-12-11T00:19:30;6.55;;;2.33;;
23230;SDS011;11784;49.818;8.632;2022-12-11T00:21:56;8.27;;;3.53;;
23230;SDS011;11784;49.818;8.632;2022-12-11T00:24:21;8.55;;;4.15;;
23230;SDS011;11784;49.818;8.632;2022-12-11T00:26:47;8.10;;;4.00;;
23230;SDS011;11784;49.818;8.632;2022-12-11T00:29:12;7.45;;;4.35;;
23230;SDS011;11784;49.818;8.632;2022-12-11T00:31:39;6.75;;;3.92;;
23230;SDS011;11784;49.818;8.632;2022-12-11T00:34:06;7.78;;;4.47;;
23230;SDS011;11784;49.818;8.632;2022-12-11T00:36:32;9.45;;;3.60;;
23230;SDS011;11784;49.818;8.632;2022-12-11T00:38:58;10.32;;;5.47;;
23230;SDS011;11784;49.818;8.632;2022-12-11T00:41:25;8.43;;;4.20;;
23230;SDS011;11784;49.818;8.632;2022-12-11T00:43:50;10.70;;;4.13;;
23230;SDS011;11784;49.818;8.632;2022-12-11T00:46:16;8.38;;;3.70;;
23230;SDS011;11784;49.818;8.632;2022-12-11T00:48:41;6.97;;;3.60;;
23230;SDS011;11784;49.818;8.632;2022-12-11T00:51:07;7.43;;;3.55;;
23230;SDS011;11784;49.818;8.632;2022-12-11T00:53:33;8.70;;;4.18;;
23230;SDS011;11784;49.818;8.632;2022-12-11T00:55:59;7.82;;;4.22;;
23230;SDS011;11784;49.818;8.632;2022-12-11T00:58:24;11.05;;;4.05;;
23230;SDS011;11784;49.818;8.632;2022-12-11T01:00:50;5.78;;;3.33;;
23230;SDS011;11784;49.818;8.632;2022-12-11T01:03:17;6.03;;;3.67;;
23230;SDS011;11784;49.818;8.632;2022-12-11T01:05:52;7.45;;;3.75;;
23230;SDS011;11784;49.818;8.632;2022-12-11T01:08:18;11.18;;;3.75;;
23230;SDS011;11784;49.818;8.632;2022-12-11T01:10:44;8.40;;;3.10;;
23230;SDS011;11784;49.818;8.632;2022-12-11T01:13:09;7.38;;;3.83;;
23230;SDS011;11784;49.818;8.632;2022-12-11T01:15:39;6.22;;;3.40;;
23230;SDS011;11784;49.818;8.632;2022-12-11T01:18:07;10.93;;;4.40;;
23230;SDS011;11784;49.818;8.632;2022-12-11T01:20:33;8.52;;;4.05;;
23230;SDS011;11784;49.818;8.632;2022-12-11T01:22:59;8.15;;;4.20;;
23230;SDS011;11784;49.818;8.632;2022-12-11T01:25:25;7.97;;;3.97;;
23230;SDS011;11784;49.818;8.632;2022-12-11T01:27:53;5.97;;;2.72;;
23230;SDS011;11784;49.818;8.632;2022-12-11T01:30:20;7.70;;;3.88;;
23230;SDS011;11784;49.818;8.632;2022-12-11T01:32:47;5.35;;;2.50;;
23230;SDS011;11784;49.818;8.632;2022-12-11T01:35:13;9.05;;;3.60;;
23230;SDS011;11784;49.818;8.632;2022-12-11T01:37:40;8.20;;;4.47;;
23230;SDS011;11784;49.818;8.632;2022-12-11T01:40:06;7.20;;;3.40;;
23230;SDS011;11784;49.818;8.632;2022-12-11T01:42:32;8.00;;;3.85;;
23230;SDS011;11784;49.818;8.632;2022-12-11T01:47:45;5.80;;;3.88;;
23230;SDS011;11784;49.818;8.632;2022-12-11T01:50:11;9.57;;;3.92;;
23230;SDS011;11784;49.818;8.632;2022-12-11T01:52:37;8.77;;;3.75;;
23230;SDS011;11784;49.818;8.632;2022-12-11T01:55:05;7.97;;;4.22;;
23230;SDS011;11784;49.818;8.632;2022-12-11T01:57:32;9.70;;;3.30;;
23230;SDS011;11784;49.818;8.632;2022-12-11T01:59:58;8.15;;;3.55;;
23230;SDS011;11784;49.818;8.632;2022-12-11T02:02:28;7.57;;;3.78;;
23230;SDS011;11784;49.818;8.632;2022-12-11T02:04:54;5.23;;;3.40;;
23230;SDS011;11784;49.818;8.632;2022-12-11T02:07:20;9.95;;;4.32;;
23230;SDS011;11784;49.818;8.632;2022-12-11T02:09:46;12.32;;;4.28;;
23230;SDS011;11784;49.818;8.632;2022-12-11T02:15:13;6.50;;;2.90;;
23230;SDS011;11784;49.818;8.632;2022-12-11T02:30:54;6.43;;;3.72;;
23230;SDS011;11784;49.818;8.632;2022-12-11T02:33:27;6.20;;;3.45;;
23230;SDS011;11784;49.818;8.632;2022-12-11T02:36:03;8.98;;;3.97;;
23230;SDS011;11784;49.818;8.632;2022-12-11T02:38:32;10.00;;;3.90;;
23230;SDS011;11784;49.818;8.632;2022-12-11T02:41:01;9.18;;;4.40;;
23230;SDS011;11784;49.818;8.632;2022-12-11T02:43:29;8.13;;;4.75;;
23230;SDS011;11784;49.818;8.632;2022-12-11T02:45:57;7.93;;;3.65;;
23230;SDS011;11784;49.818;8.632;2022-12-11T02:48:24;7.90;;;4.50;;
23230;SDS011;11784;49.818;8.632;2022-12-11T02:50:51;6.18;;;2.88;;
23230;SDS011;11784;49.818;8.632;2022-12-11T02:53:21;5.22;;;3.25;;
23230;SDS011;11784;49.818;8.632;2022-12-11T02:55:51;11.50;;;3.83;;
23230;SDS011;11784;49.818;8.632;2022-12-11T02:58:26;8.07;;;3.45;;
23230;SDS011;11784;49.818;8.632;2022-12-11T03:00:55;10.38;;;4.05;;
23230;SDS011;11784;49.818;8.632;2022-12-11T03:03:20;7.88;;;4.00;;
23230;SDS011;11784;49.818;8.632;2022-12-11T03:05:47;12.32;;;3.30;;
23230;SDS011;11784;49.818;8.632;2022-12-11T03:08:12;7.32;;;4.10;;
23230;SDS011;11784;49.818;8.632;2022-12-11T03:10:42;7.90;;;3.50;;
23230;SDS011;11784;49.818;8.632;2022-12-11T03:13:09;9.98;;;3.83;;
23230;SDS011;11784;49.818;8.632;2022-12-11T03:21:00;8.57;;;4.68;;
23230;SDS011;11784;49.818;8.632;2022-12-11T03:23:32;11.23;;;4.47;;
23230;SDS011;11784;49.818;8.632;2022-12-11T03:26:13;9.25;;;4.68;;
23230;SDS011;11784;49.818;8.632;2022-12-11T03:28:48;8.27;;;4.35;;
23230;SDS011;11784;49.818;8.632;2022-12-11T03:31:42;10.70;;;4.53;;
23230;SDS011;11784;49.818;8.632;2022-12-11T03:34:16;11.52;;;4.65;;
23230;SDS011;11784;49.818;8.632;2022-12-11T03:36:52;9.95;;;3.83;;
23230;SDS011;11784;49.818;8.632;2022-12-11T03:39:41;6.45;;;3.92;;
23230;SDS011;11784;49.818;8.632;2022-12-11T03:42:09;13.38;;;4.65;;
23230;SDS011;11784;49.818;8.632;2022-12-11T03:44:37;8.07;;;4.05;;
23230;SDS011;11784;49.818;8.632;2022-12-11T03:47:05;11.43;;;5.15;;
23230;SDS011;11784;49.818;8.632;2022-12-11T03:49:41;10.63;;;4.47;;
23230;SDS011;11784;49.818;8.632;2022-12-11T03:52:08;7.38;;;3.85;;
23230;SDS011;11784;49.818;8.632;2022-12-11T03:54:36;13.35;;;4.85;;
23230;SDS011;11784;49.818;8.632;2022-12-11T03:57:03;9.75;;;3.97;;
23230;SDS011;11784;49.818;8.632;2022-12-11T03:59:31;8.23;;;5.10;;
23230;SDS011;11784;49.818;8.632;2022-12-11T04:01:56;15.45;;;4.93;;
23230;SDS011;11784;49.818;8.632;2022-12-11T04:04:22;8.10;;;3.92;;
23230;SDS011;11784;49.818;8.632;2022-12-11T04:06:47;10.02;;;3.95;;
23230;SDS011;11784;49.818;8.632;2022-12-11T04:09:13;9.60;;;4.10;;
23230;SDS011;11784;49.818;8.632;2022-12-11T04:11:39;11.48;;;4.72;;
23230;SDS011;11784;49.818;8.632;2022-12-11T04:14:08;11.38;;;4.55;;
23230;SDS011;11784;49.818;8.632;2022-12-11T04:16:54;8.32;;;4.35;;
23230;SDS011;11784;49.818;8.632;2022-12-11T04:19:21;7.50;;;4.13;;
23230;SDS011;11784;49.818;8.632;2022-12-11T04:22:08;8.60;;;4.75;;
23230;SDS011;11784;49.818;8.632;2022-12-11T04:24:56;9.02;;;5.38;;
23230;SDS011;11784;49.818;8.632;2022-12-11T04:27:21;8.43;;;4.55;;
23230;SDS011;11784;49.818;8.632;2022-12-11T04:30:07;12.88;;;5.53;;
23230;SDS011;11784;49.818;8.632;2022-12-11T04:32:34;10.23;;;4.72;;
23230;SDS011;11784;49.818;8.632;2022-12-11T04:35:00;11.50;;;3.72;;
23230;SDS011;11784;49.818;8.632;2022-12-11T04:37:26;8.60;;;4.32;;
23230;SDS011;11784;49.818;8.632;2022-12-11T04:39:52;9.90;;;4.78;;
23230;SDS011;11784;49.818;8.632;2022-12-11T04:42:17;9.57;;;4.07;;
23230;SDS011;11784;49.818;8.632;2022-12-11T04:44:43;10.15;;;4.57;;
23230;SDS011;11784;49.818;8.632;2022-12-11T04:47:08;7.47;;;4.50;;
23230;SDS011;11784;49.818;8.632;2022-12-11T04:49:34;8.70;;;5.63;;
23230;SDS011;11784;49.818;8.632;2022-12-11T04:51:59;9.00;;;4.85;;
23230;SDS011;11784;49.818;8.632;2022-12-11T04:54:27;9.30;;;4.68;;
23230;SDS011;11784;49.818;8.632;2022-12-11T04:56:53;12.82;;;5.35;;
23230;SDS011;11784;49.818;8.632;2022-12-11T04:59:19;12.10;;;4.70;;
23230;SDS011;11784;49.818;8.632;2022-12-11T05:01:45;9.57;;;4.20;;
23230;SDS011;11784;49.818;8.632;2022-12-11T05:04:10;9.82;;;4.47;;
23230;SDS011;11784;49.818;8.632;2022-12-11T05:06:36;10.82;;;3.85;;
23230;SDS011;11784;49.818;8.632;2022-12-11T05:09:02;8.57;;;4.00;;
23230;SDS011;11784;49.818;8.632;2022-12-11T05:11:27;9.85;;;4.60;;
23230;SDS011;11784;49.818;8.632;2022-12-11T05:13:53;6.93;;;4.35;;
23230;SDS011;11784;49.818;8.632;2022-12-11T05:16:19;6.05;;;4.25;;
23230;SDS011;11784;49.818;8.632;2022-12-11T05:18:44;10.30;;;4.45;;
23230;SDS011;11784;49.818;8.632;2022-12-11T05:21:11;10.20;;;4.55;;
23230;SDS011;11784;49.818;8.632;2022-12-11T05:23:39;9.50;;;4.20;;
23230;SDS011;11784;49.818;8.632;2022-12-11T05:26:06;11.48;;;5.07;;
23230;SDS011;11784;49.818;8.632;2022-12-11T05:28:35;8.50;;;4.85;;
23230;SDS011;11784;49.818;8.632;2022-12-11T05:31:03;8.63;;;5.32;;
23230;SDS011;11784;49.818;8.632;2022-12-11T05:33:31;11.32;;;5.35;;
23230;SDS011;11784;49.818;8.632;2022-12-11T05:35:58;14.18;;;5.70;;
23230;SDS011;11784;49.818;8.632;2022-12-11T05:38:23;15.00;;;5.85;;
23230;SDS011;11784;49.818;8.632;2022-12-11T05:40:56;10.85;;;5.18;;
23230;SDS011;11784;49.818;8.632;2022-12-11T05:43:23;9.10;;;5.15;;
23230;SDS011;11784;49.818;8.632;2022-12-11T05:45:49;10.23;;;5.25;;
23230;SDS011;11784;49.818;8.632;2022-12-11T05:48:15;8.00;;;4.68;;
23230;SDS011;11784;49.818;8.632;2022-12-11T05:50:40;12.18;;;5.57;;
23230;SDS011;11784;49.818;8.632;2022-12-11T05:53:06;10.25;;;4.38;;
23230;SDS011;11784;49.818;8.632;2022-12-11T05:55:34;9.18;;;4.50;;
23230;SDS011;11784;49.818;8.632;2022-12-11T05:58:00;12.57;;;5.45;;
23230;SDS011;11784;49.818;8.632;2022-12-11T06:00:26;12.65;;;5.07;;
23230;SDS011;11784;49.818;8.632;2022-12-11T06:02:51;10.00;;;4.90;;
23230;SDS011;11784;49.818;8.632;2022-12-11T06:05:17;11.65;;;4.55;;
23230;SDS011;11784;49.818;8.632;2022-12-11T06:07:42;9.77;;;5.45;;
23230;SDS011;11784;49.818;8.632;2022-12-11T06:10:08;6.57;;;4.30;;
23230;SDS011;11784;49.818;8.632;2022-12-11T06:12:34;5.88;;;3.92;;
23230;SDS011;11784;49.818;8.632;2022-12-11T06:15:00;8.77;;;5.00;;
23230;SDS011;11784;49.818;8.632;2022-12-11T06:17:25;11.07;;;5.32;;
23230;SDS011;11784;49.818;8.632;2022-12-11T06:19:51;8.65;;;5.50;;
23230;SDS011;11784;49.818;8.632;2022-12-11T06:22:16;9.60;;;4.40;;
23230;SDS011;11784;49.818;8.632;2022-12-11T06:24:42;8.57;;;4.35;;
23230;SDS011;11784;49.818;8.632;2022-12-11T06:27:07;7.30;;;3.88;;
23230;SDS011;11784;49.818;8.632;2022-12-11T06:29:33;12.32;;;5.38;;
23230;SDS011;11784;49.818;8.632;2022-12-11T06:31:58;12.27;;;4.57;;
23230;SDS011;11784;49.818;8.632;2022-12-11T06:34:24;14.35;;;5.32;;
23230;SDS011;11784;49.818;8.632;2022-12-11T06:36:49;18.17;;;4.88;;
23230;SDS011;11784;49.818;8.632;2022-12-11T06:39:15;12.65;;;4.10;;
23230;SDS011;11784;49.818;8.632;2022-12-11T06:41:40;10.35;;;6.20;;
23230;SDS011;11784;49.818;8.632;2022-12-11T06:44:06;8.57;;;4.60;;
23230;SDS011;11784;49.818;8.632;2022-12-11T06:46:31;10.73;;;4.43;;
23230;SDS011;11784;49.818;8.632;2022-12-11T06:48:57;6.57;;;3.92;;
23230;SDS011;11784;49.818;8.632;2022-12-11T06:51:22;13.13;;;5.03;;
23230;SDS011;11784;49.818;8.632;2022-12-11T06:53:52;9.52;;;4.95;;
23230;SDS011;11784;49.818;8.632;2022-12-11T06:56:19;5.88;;;3.95;;
23230;SDS011;11784;49.818;8.632;2022-12-11T06:58:45;9.82;;;5.05;;
23230;SDS011;11784;49.818;8.632;2022-12-11T07:01:13;10.02;;;3.75;;
23230;SDS011;11784;49.818;8.632;2022-12-11T07:03:39;5.45;;;3.45;;
23230;SDS011;11784;49.818;8.632;2022-12-11T07:06:05;12.07;;;5.60;;
23230;SDS011;11784;49.818;8.632;2022-12-11T07:08:31;11.65;;;5.45;;
23230;SDS011;11784;49.818;8.632;2022-12-11T07:11:04;9.13;;;3.58;;
23230;SDS011;11784;49.818;8.632;2022-12-11T07:13:31;7.95;;;3.70;;
23230;SDS011;11784;49.818;8.632;2022-12-11T07:15:57;13.75;;;5.45;;
23230;SDS011;11784;49.818;8.632;2022-12-11T07:18:24;9.80;;;4.15;;
23230;SDS011;11784;49.818;8.632;2022-12-11T07:20:50;11.05;;;5.80;;
23230;SDS011;11784;49.818;8.632;2022-12-11T07:23:16;5.88;;;4.50;;
23230;SDS011;11784;49.818;8.632;2022-12-11T07:25:41;8.23;;;4.68;;
23230;SDS011;11784;49.818;8.632;2022-12-11T07:28:07;9.35;;;5.35;;
23230;SDS011;11784;49.818;8.632;2022-12-11T07:30:32;9.77;;;4.53;;
23230;SDS011;11784;49.818;8.632;2022-12-11T07:32:58;10.13;;;4.50;;
23230;SDS011;11784;49.818;8.632;2022-12-11T07:35:23;13.00;;;5.93;;
23230;SDS011;11784;49.818;8.632;2022-12-11T07:37:49;13.35;;;5.35;;
23230;SDS011;11784;49.818;8.632;2022-12-11T07:40:15;11.45;;;5.68;;
23230;SDS011;11784;49.818;8.632;2022-12-11T07:42:40;8.07;;;4.53;;
23230;SDS011;11784;49.818;8.632;2022-12-11T07:45:06;10.98;;;4.32;;
23230;SDS011;11784;49.818;8.632;2022-12-11T07:47:32;11.98;;;5.25;;
23230;SDS011;11784;49.818;8.632;2022-12-11T07:49:57;10.45;;;5.50;;
23230;SDS011;11784;49.818;8.632;2022-12-11T07:52:23;10.35;;;4.60;;
23230;SDS011;11784;49.818;8.632;2022-12-11T07:54:48;8.20;;;5.03;;
23230;SDS011;11784;49.818;8.632;2022-12-11T07:57:14;14.98;;;5.65;;
23230;SDS011;11784;49.818;8.632;2022-12-11T07:59:40;13.77;;;5.22;;
23230;SDS011;11784;49.818;8.632;2022-12-11T08:02:05;11.85;;;5.15;;
23230;SDS011;11784;49.818;8.632;2022-12-11T08:04:33;13.60;;;5.88;;
23230;SDS011;11784;49.818;8.632;2022-12-11T08:06:58;12.52;;;5.28;;
23230;SDS011;11784;49.818;8.632;2022-12-11T08:09:24;15.30;;;5.13;;
23230;SDS011;11784;49.818;8.632;2022-12-11T08:11:51;10.82;;;4.85;;
23230;SDS011;11784;49.818;8.632;2022-12-11T08:14:17;13.85;;;4.43;;
23230;SDS011;11784;49.818;8.632;2022-12-11T08:16:43;11.40;;;5.57;;
23230;SDS011;11784;49.818;8.632;2022-12-11T08:19:10;7.50;;;4.28;;
23230;SDS011;11784;49.818;8.632;2022-12-11T08:21:36;12.00;;;5.35;;
23230;SDS011;11784;49.818;8.632;2022-12-11T08:24:02;8.13;;;4.07;;
23230;SDS011;11784;49.818;8.632;2022-12-11T08:26:28;12.50;;;5.10;;
23230;SDS011;11784;49.818;8.632;2022-12-11T08:28:55;13.65;;;6.22;;
23230;SDS011;11784;49.818;8.632;2022-12-11T08:31:21;10.98;;;5.85;;
23230;SDS011;11784;49.818;8.632;2022-12-11T08:33:47;10.13;;;5.55;;
23230;SDS011;11784;49.818;8.632;2022-12-11T08:36:14;12.50;;;5.35;;
23230;SDS011;11784;49.818;8.632;2022-12-11T08:38:41;11.93;;;5.00;;
23230;SDS011;11784;49.818;8.632;2022-12-11T08:41:14;12.63;;;5.28;;
23230;SDS011;11784;49.818;8.632;2022-12-11T08:43:45;14.43;;;5.97;;
23230;SDS011;11784;49.818;8.632;2022-12-11T08:46:11;12.85;;;5.72;;
23230;SDS011;11784;49.818;8.632;2022-12-11T08:48:38;11.73;;;5.40;;
23230;SDS011;11784;49.818;8.632;2022-12-11T08:51:05;10.35;;;4.75;;
23230;SDS011;11784;49.818;8.632;2022-12-11T08:53:33;12.30;;;5.85;;
23230;SDS011;11784;49.818;8.632;2022-12-11T08:56:02;13.38;;;5.05;;
23230;SDS011;11784;49.818;8.632;2022-12-11T08:58:30;15.02;;;6.68;;
23230;SDS011;11784;49.818;8.632;2022-12-11T09:00:55;13.75;;;6.32;;
23230;SDS011;11784;49.818;8.632;2022-12-11T09:03:21;13.88;;;5.78;;
23230;SDS011;11784;49.818;8.632;2022-12-11T09:05:47;12.50;;;4.85;;
23230;SDS011;11784;49.818;8.632;2022-12-11T09:08:13;12.63;;;5.25;;
23230;SDS011;11784;49.818;8.632;2022-12-11T09:10:39;12.77;;;4.65;;
23230;SDS011;11784;49.818;8.632;2022-12-11T09:13:04;8.65;;;4.30;;
23230;SDS011;11784;49.818;8.632;2022-12-11T09:15:30;10.00;;;5.28;;
23230;SDS011;11784;49.818;8.632;2022-12-11T09:17:55;12.82;;;5.50;;
23230;SDS011;11784;49.818;8.632;2022-12-11T09:20:21;10.27;;;5.78;;
23230;SDS011;11784;49.818;8.632;2022-12-11T09:22:46;10.88;;;5.65;;
23230;SDS011;11784;49.818;8.632;2022-12-11T09:25:12;8.32;;;4.28;;
23230;SDS011;11784;49.818;8.632;2022-12-11T09:27:38;12.50;;;5.40;;
23230;SDS011;11784;49.818;8.632;2022-12-11T09:30:05;11.38;;;5.53;;
23230;SDS011;11784;49.818;8.632;2022-12-11T09:32:31;11.93;;;5.28;;
23230;SDS011;11784;49.818;8.632;2022-12-11T09:34:56;10.73;;;5.03;;
23230;SDS011;11784;49.818;8.632;2022-12-11T09:37:22;13.07;;;5.45;;
23230;SDS011;11784;49.818;8.632;2022-12-11T09:39:47;11.20;;;4.78;;
23230;SDS011;11784;49.818;8.632;2022-12-11T09:42:14;13.68;;;5.82;;
23230;SDS011;11784;49.818;8.632;2022-12-11T09:44:55;12.40;;;5.90;;
23230;SDS011;11784;49.818;8.632;2022-12-11T09:47:25;11.88;;;5.40;;
23230;SDS011;11784;49.818;8.632;2022-12-11T09:50:02;12.77;;;5.07;;
23230;SDS011;11784;49.818;8.632;2022-12-11T09:55:21;11.20;;;5.85;;
23230;SDS011;11784;49.818;8.632;2022-12-11T10:00:45;16.23;;;5.15;;
23230;SDS011;11784;49.818;8.632;2022-12-11T10:04:15;14.27;;;5.85;;
23230;SDS011;11784;49.818;8.632;2022-12-11T10:06:22;13.85;;;6.03;;
23230;SDS011;11784;49.818;8.632;2022-12-11T10:08:59;16.95;;;6.95;;
23230;SDS011;11784;49.818;8.632;2022-12-11T10:19:51;14.00;;;6.82;;
23230;SDS011;11784;49.818;8.632;2022-12-11T10:22:27;9.95;;;5.53;;
23230;SDS011;11784;49.818;8.632;2022-12-11T10:25:00;10.60;;;6.00;;
23230;SDS011;11784;49.818;8.632;2022-12-11T10:27:28;18.88;;;6.82;;
23230;SDS011;11784;49.818;8.632;2022-12-11T10:30:03;15.15;;;6.93;;
23230;SDS011;11784;49.818;8.632;2022-12-11T10:35:33;12.77;;;6.25;;
23230;SDS011;11784;49.818;8.632;2022-12-11T10:38:13;14.15;;;6.22;;
23230;SDS011;11784;49.818;8.632;2022-12-11T10:40:45;17.70;;;7.60;;
23230;SDS011;11784;49.818;8.632;2022-12-11T10:43:15;13.40;;;6.00;;
23230;SDS011;11784;49.818;8.632;2022-12-11T10:45:50;15.48;;;5.88;;
23230;SDS011;11784;49.818;8.632;2022-12-11T10:48:17;13.70;;;5.18;;
23230;SDS011;11784;49.818;8.632;2022-12-11T10:50:43;13.55;;;5.78;;
23230;SDS011;11784;49.818;8.632;2022-12-11T10:53:19;15.98;;;5.82;;
23230;SDS011;11784;49.818;8.632;2022-12-11T10:55:46;14.60;;;6.35;;
23230;SDS011;11784;49.818;8.632;2022-12-11T10:58:17;11.02;;;6.15;;
23230;SDS011;11784;49.818;8.632;2022-12-11T11:00:56;18.88;;;6.43;;
23230;SDS011;11784;49.818;8.632;2022-12-11T11:03:35;14.80;;;5.85;;
23230;SDS011;11784;49.818;8.632;2022-12-11T11:06:14;12.80;;;6.22;;
23230;SDS011;11784;49.818;8.632;2022-12-11T11:08:44;11.93;;;6.45;;
23230;SDS011;11784;49.818;8.632;2022-12-11T11:11:19;14.68;;;6.38;;
23230;SDS011;11784;49.818;8.632;2022-12-11T11:13:47;15.18;;;7.15;;
23230;SDS011;11784;49.818;8.632;2022-12-11T11:16:14;14.55;;;7.18;;
23230;SDS011;11784;49.818;8.632;2022-12-11T11:18:47;17.23;;;7.53;;
23230;SDS011;11784;49.818;8.632;2022-12-11T11:21:17;15.02;;;6.32;;
23230;SDS011;11784;49.818;8.632;2022-12-11T11:23:44;14.02;;;5.82;;
23230;SDS011;11784;49.818;8.632;2022-12-11T11:26:10;16.67;;;6.90;;
23230;SDS011;11784;49.818;8.632;2022-12-11T11:28:36;16.35;;;5.97;;
23230;SDS011;11784;49.818;8.632;2022-12-11T11:31:07;16.42;;;6.80;;
23230;SDS011;11784;49.818;8.632;2022-12-11T11:33:36;13.40;;;5.55;;
23230;SDS011;11784;49.818;8.632;2022-12-11T11:36:19;17.13;;;6.63;;
23230;SDS011;11784;49.818;8.632;2022-12-11T11:38:48;12.63;;;5.93;;
23230;SDS011;11784;49.818;8.632;2022-12-11T11:41:28;14.43;;;6.30;;
23230;SDS011;11784;49.818;8.632;2022-12-11T11:44:02;11.27;;;4.75;;
23230;SDS011;11784;49.818;8.632;2022-12-11T11:46:36;19.17;;;7.35;;
23230;SDS011;11784;49.818;8.632;2022-12-11T11:49:24;12.50;;;5.65;;
23230;SDS011;11784;49.818;8.632;2022-12-11T11:55:01;10.05;;;5.13;;
23230;SDS011;11784;49.818;8.632;2022-12-11T12:00:52;13.88;;;6.72;;
23230;SDS011;11784;49.818;8.632;2022-12-11T12:03:18;17.15;;;7.45;;
23230;SDS011;11784;49.818;8.632;2022-12-11T12:05:59;15.55;;;6.38;;
23230;SDS011;11784;49.818;8.632;2022-12-11T12:08:56;13.20;;;4.85;;
23230;SDS011;11784;49.818;8.632;2022-12-11T12:16:39;17.95;;;5.80;;
23230;SDS011;11784;49.818;8.632;2022-12-11T12:25:09;14.32;;;5.75;;
23230;SDS011;11784;49.818;8.632;2022-12-11T12:27:20;16.90;;;6.90;;
23230;SDS011;11784;49.818;8.632;2022-12-11T12:30:08;14.98;;;5.50;;
23230;SDS011;11784;49.818;8.632;2022-12-11T12:35:26;17.35;;;7.82;;
23230;SDS011;11784;49.818;8.632;2022-12-11T12:38:05;17.05;;;6.57;;
23230;SDS011;11784;49.818;8.632;2022-12-11T12:43:29;12.38;;;5.47;;
23230;SDS011;11784;49.818;8.632;2022-12-11T12:49:06;16.60;;;6.72;;
23230;SDS011;11784;49.818;8.632;2022-12-11T12:51:39;15.63;;;6.00;;
23230;SDS011;11784;49.818;8.632;2022-12-11T12:54:08;10.95;;;5.47;;
23230;SDS011;11784;49.818;8.632;2022-12-11T12:56:39;20.60;;;7.30;;
23230;SDS011;11784;49.818;8.632;2022-12-11T12:59:17;14.25;;;6.15;;
23230;SDS011;11784;49.818;8.632;2022-12-11T13:01:48;16.27;;;6.50;;
23230;SDS011;11784;49.818;8.632;2022-12-11T13:04:27;14.27;;;6.30;;
23230;SDS011;11784;49.818;8.632;2022-12-11T13:06:58;15.25;;;6.65;;
23230;SDS011;11784;49.818;8.632;2022-12-11T13:12:42;17.30;;;7.25;;
23230;SDS011;11784;49.818;8.632;2022-12-11T13:17:57;11.32;;;5.80;;
23230;SDS011;11784;49.818;8.632;2022-12-11T13:20:25;9.38;;;4.60;;
23230;SDS011;11784;49.818;8.632;2022-12-11T13:23:17;13.15;;;5.88;;
23230;SDS011;11784;49.818;8.632;2022-12-11T13:25:57;16.92;;;5.97;;
23230;SDS011;11784;49.818;8.632;2022-12-11T13:28:46;20.77;;;5.72;;
23230;SDS011;11784;49.818;8.632;2022-12-11T13:33:50;14.27;;;6.13;;
23230;SDS011;11784;49.818;8.632;2022-12-11T13:38:48;15.07;;;4.78;;
23230;SDS011;11784;49.818;8.632;2022-12-11T13:41:18;17.20;;;5.55;;
23230;SDS011;11784;49.818;8.632;2022-12-11T13:43:46;12.93;;;6.85;;
23230;SDS011;11784;49.818;8.632;2022-12-11T13:46:13;13.00;;;6.50;;
23230;SDS011;11784;49.818;8.632;2022-12-11T13:48:50;12.38;;;6.32;;
23230;SDS011;11784;49.818;8.632;2022-12-11T13:51:21;14.00;;;5.93;;
23230;SDS011;11784;49.818;8.632;2022-12-11T13:53:48;13.65;;;6.55;;
23230;SDS011;11784;49.818;8.632;2022-12-11T13:56:39;14.52;;;5.13;;
23230;SDS011;11784;49.818;8.632;2022-12-11T13:59:17;11.10;;;5.63;;
23230;SDS011;11784;49.818;8.632;2022-12-11T14:01:59;14.40;;;5.97;;
23230;SDS011;11784;49.818;8.632;2022-12-11T14:04:30;15.48;;;5.53;;
23230;SDS011;11784;49.818;8.632;2022-12-11T14:06:57;11.15;;;5.75;;
23230;SDS011;11784;49.818;8.632;2022-12-11T14:09:23;8.93;;;5.35;;
23230;SDS011;11784;49.818;8.632;2022-12-11T14:11:51;15.80;;;5.63;;
23230;SDS011;11784;49.818;8.632;2022-12-11T14:14:21;15.43;;;5.55;;
23230;SDS011;11784;49.818;8.632;2022-12-11T14:16:55;13.68;;;5.72;;
23230;SDS011;11784;49.818;8.632;2022-12-11T14:19:21;10.13;;;4.82;;
23230;SDS011;11784;49.818;8.632;2022-12-11T14:22:02;17.20;;;7.32;;
23230;SDS011;11784;49.818;8.632;2022-12-11T14:24:29;11.88;;;5.60;;
23230;SDS011;11784;49.818;8.632;2022-12-11T14:26:55;15.40;;;6.88;;
23230;SDS011;11784;49.818;8.632;2022-12-11T14:29:25;15.60;;;7.00;;
23230;SDS011;11784;49.818;8.632;2022-12-11T14:31:56;13.25;;;6.00;;
23230;SDS011;11784;49.818;8.632;2022-12-11T14:34:44;12.13;;;6.65;;
23230;SDS011;11784;49.818;8.632;2022-12-11T14:37:13;12.18;;;6.03;;
23230;SDS011;11784;49.818;8.632;2022-12-11T14:42:34;15.57;;;6.22;;
23230;SDS011;11784;49.818;8.632;2022-12-11T14:47:31;12.57;;;5.88;;
23230;SDS011;11784;49.818;8.632;2022-12-11T14:50:07;15.30;;;6.63;;
23230;SDS011;11784;49.818;8.632;2022-12-11T14:52:41;14.07;;;4.25;;
23230;SDS011;11784;49.818;8.632;2022-12-11T14:55:14;15.93;;;6.95;;
23230;SDS011;11784;49.818;8.632;2022-12-11T14:57:46;15.40;;;6.90;;
23230;SDS011;11784;49.818;8.632;2022-12-11T15:00:25;13.82;;;5.35;;
23230;SDS011;11784;49.818;8.632;2022-12-11T15:03:00;14.30;;;6.93;;
23230;SDS011;11784;49.818;8.632;2022-12-11T15:05:30;17.35;;;5.93;;
23230;SDS011;11784;49.818;8.632;2022-12-11T15:10:29;16.17;;;4.90;;
23230;SDS011;11784;49.818;8.632;2022-12-11T15:13:00;12.50;;;6.07;;
23230;SDS011;11784;49.818;8.632;2022-12-11T15:15:29;15.23;;;5.35;;
23230;SDS011;11784;49.818;8.632;2022-12-11T15:18:01;15.48;;;6.75;;
23230;SDS011;11784;49.818;8.632;2022-12-11T15:20:37;14.25;;;5.70;;
23230;SDS011;11784;49.818;8.632;2022-12-11T15:23:05;14.48;;;7.20;;
23230;SDS011;11784;49.818;8.632;2022-12-11T15:25:31;14.88;;;6.78;;
23230;SDS011;11784;49.818;8.632;2022-12-11T15:27:58;15.02;;;5.63;;
23230;SDS011;11784;49.818;8.632;2022-12-11T15:30:26;15.25;;;6.03;;
23230;SDS011;11784;49.818;8.632;2022-12-11T15:35:34;15.25;;;6.38;;
23230;SDS011;11784;49.818;8.632;2022-12-11T15:38:01;14.85;;;6.30;;
23230;SDS011;11784;49.818;8.632;2022-12-11T15:40:27;11.73;;;5.15;;
23230;SDS011;11784;49.818;8.632;2022-12-11T15:42:53;11.02;;;5.20;;
23230;SDS011;11784;49.818;8.632;2022-12-11T15:45:20;13.10;;;4.97;;
23230;SDS011;11784;49.818;8.632;2022-12-11T15:47:48;18.10;;;7.07;;
23230;SDS011;11784;49.818;8.632;2022-12-11T15:50:17;16.73;;;6.35;;
23230;SDS011;11784;49.818;8.632;2022-12-11T15:52:48;14.00;;;7.63;;
23230;SDS011;11784;49.818;8.632;2022-12-11T15:55:15;11.98;;;4.60;;
23230;SDS011;11784;49.818;8.632;2022-12-11T15:57:42;12.25;;;5.10;;
23230;SDS011;11784;49.818;8.632;2022-12-11T16:00:15;10.43;;;4.75;;
23230;SDS011;11784;49.818;8.632;2022-12-11T16:02:45;8.73;;;4.50;;
23230;SDS011;11784;49.818;8.632;2022-12-11T16:05:11;14.95;;;5.60;;
23230;SDS011;11784;49.818;8.632;2022-12-11T16:07:38;10.90;;;6.10;;
23230;SDS011;11784;49.818;8.632;2022-12-11T16:10:04;19.20;;;6.15;;
23230;SDS011;11784;49.818;8.632;2022-12-11T16:12:30;12.82;;;5.43;;
23230;SDS011;11784;49.818;8.632;2022-12-11T16:14:56;16.13;;;5.80;;
23230;SDS011;11784;49.818;8.632;2022-12-11T16:17:22;13.15;;;5.43;;